Time;durP1;ratioP1;P1;durP2;ratioP2;P2;SDS_P1;SDS_P2;PMS_P1;PMS_P2;Temp;Humidity;BMP_temperature;BMP_pressure;BME280_temperature;BME280_humidity;BME280_pressure;Samples;Min_cycle;Max_cycle;Signal;HPM_P1;HPM_P2
2022/04/30 00:02:01;;;;;;;10.48;4.30;;;;;;;;;;5042000;28;20036;-66
2022/04/30 00:04:26;;;;;;;10.75;4.28;;;;;;;;;;5027718;28;20083;-65
2022/04/30 00:06:52;;;;;;;8.57;4.20;;;;;;;;;;5027763;28;20034;-65
2022/04/30 00:09:17;;;;;;;8.55;4.50;;;;;;;;;;5036923;28;20073;-66
2022/04/30 00:11:43;;;;;;;9.05;4.10;;;;;;;;;;5029961;28;20383;-65
2022/04/30 00:14:08;;;;;;;8.25;4.00;;;;;;;;;;5030879;28;20091;-65
2022/04/30 00:16:33;;;;;;;8.52;4.22;;;;;;;;;;5020585;28;20547;-65
2022/04/30 00:18:59;;;;;;;9.85;4.40;;;;;;;;;;5019799;28;20052;-65
2022/04/30 00:21:24;;;;;;;7.10;4.10;;;;;;;;;;5053934;28;20485;-67
2022/04/30 00:23:50;;;;;;;8.63;4.10;;;;;;;;;;5024665;28;20046;-64
2022/04/30 00:26:15;;;;;;;7.70;3.90;;;;;;;;;;5035101;28;20064;-67
2022/04/30 00:28:41;;;;;;;7.68;3.42;;;;;;;;;;5030121;28;20372;-65
2022/04/30 00:31:07;;;;;;;6.43;3.78;;;;;;;;;;5029835;28;20034;-66
2022/04/30 00:33:32;;;;;;;7.70;3.88;;;;;;;;;;5015421;28;20036;-66
2022/04/30 00:35:59;;;;;;;8.35;4.00;;;;;;;;;;5034528;28;20079;-66
2022/04/30 00:38:25;;;;;;;6.70;3.70;;;;;;;;;;5055042;28;20182;-67
2022/04/30 00:40:50;;;;;;;6.57;4.03;;;;;;;;;;5032513;28;20021;-65
2022/04/30 00:43:16;;;;;;;6.40;3.92;;;;;;;;;;5034525;28;20486;-65
2022/04/30 00:45:48;;;;;;;8.65;4.32;;;;;;;;;;5016134;28;20030;-65
2022/04/30 00:48:14;;;;;;;7.25;3.88;;;;;;;;;;5030521;28;20490;-66
2022/04/30 00:50:41;;;;;;;7.70;3.97;;;;;;;;;;5053425;28;20029;-66
2022/04/30 00:53:08;;;;;;;9.77;4.03;;;;;;;;;;5036504;28;20030;-65
2022/04/30 00:55:36;;;;;;;6.57;3.83;;;;;;;;;;5014901;28;20415;-66
2022/04/30 00:58:04;;;;;;;5.53;3.42;;;;;;;;;;5028762;28;20030;-66
2022/04/30 01:00:30;;;;;;;8.18;4.05;;;;;;;;;;5026014;28;20038;-66
2022/04/30 01:02:55;;;;;;;8.05;3.88;;;;;;;;;;5026244;28;20056;-65
2022/04/30 01:05:21;;;;;;;11.13;4.10;;;;;;;;;;5017732;28;20045;-66
2022/04/30 01:07:47;;;;;;;8.27;3.90;;;;;;;;;;5025120;28;20039;-66
2022/04/30 01:10:13;;;;;;;8.15;4.22;;;;;;;;;;5053286;28;20426;-65
2022/04/30 01:12:39;;;;;;;7.15;3.72;;;;;;;;;;5044607;28;20029;-66
2022/04/30 01:15:06;;;;;;;8.50;4.03;;;;;;;;;;5048666;28;20033;-66
2022/04/30 01:17:32;;;;;;;9.70;3.97;;;;;;;;;;5039389;28;20065;-66
2022/04/30 01:19:58;;;;;;;10.38;4.20;;;;;;;;;;5022596;28;20068;-65
2022/04/30 01:22:30;;;;;;;10.10;4.93;;;;;;;;;;5018133;28;20048;-67
2022/04/30 01:24:57;;;;;;;6.55;3.80;;;;;;;;;;5026844;28;20054;-65
2022/04/30 01:27:27;;;;;;;7.38;3.53;;;;;;;;;;5016621;28;20033;-66
2022/04/30 01:29:54;;;;;;;8.80;3.90;;;;;;;;;;5052342;28;20056;-65
2022/04/30 01:37:58;;;;;;;7.93;3.90;;;;;;;;;;5044640;28;20175;-65
2022/04/30 01:40:24;;;;;;;9.02;3.97;;;;;;;;;;5022210;28;20113;-66
2022/04/30 01:42:49;;;;;;;9.18;4.32;;;;;;;;;;5033782;28;20037;-66
2022/04/30 01:45:18;;;;;;;10.32;4.38;;;;;;;;;;5034534;28;20033;-65
2022/04/30 01:47:46;;;;;;;8.82;4.72;;;;;;;;;;5025379;28;20034;-65
2022/04/30 01:50:12;;;;;;;6.82;4.25;;;;;;;;;;5025698;28;20122;-65
2022/04/30 01:52:39;;;;;;;7.13;4.35;;;;;;;;;;5021089;28;20083;-65
2022/04/30 01:55:05;;;;;;;8.18;4.13;;;;;;;;;;5024971;28;20127;-65
2022/04/30 01:57:30;;;;;;;12.30;4.45;;;;;;;;;;5020507;28;20034;-65
2022/04/30 01:59:57;;;;;;;8.95;4.60;;;;;;;;;;5033220;28;20417;-65
2022/04/30 02:02:24;;;;;;;6.88;4.15;;;;;;;;;;5030160;28;20397;-65
2022/04/30 02:04:55;;;;;;;9.57;4.60;;;;;;;;;;5029316;28;20041;-67
2022/04/30 02:07:23;;;;;;;7.38;4.40;;;;;;;;;;5029256;28;20044;-67
2022/04/30 02:09:54;;;;;;;9.10;4.93;;;;;;;;;;5053513;28;20051;-66
2022/04/30 02:12:19;;;;;;;12.07;5.28;;;;;;;;;;5047770;28;20617;-66
2022/04/30 02:14:54;;;;;;;9.38;4.93;;;;;;;;;;5033312;28;20136;-67
2022/04/30 02:17:21;;;;;;;8.90;4.90;;;;;;;;;;5027585;28;20598;-65
2022/04/30 02:22:32;;;;;;;8.75;4.45;;;;;;;;;;5030878;28;20442;-66
2022/04/30 02:24:58;;;;;;;10.55;5.38;;;;;;;;;;5030574;28;20065;-65
2022/04/30 02:27:25;;;;;;;13.82;5.65;;;;;;;;;;5032694;28;20394;-66
2022/04/30 02:29:51;;;;;;;9.57;5.50;;;;;;;;;;5033614;28;20048;-65
2022/04/30 02:32:17;;;;;;;10.73;5.82;;;;;;;;;;5051569;28;20109;-66
2022/04/30 02:34:42;;;;;;;10.40;5.22;;;;;;;;;;5048193;28;20451;-65
2022/04/30 02:37:08;;;;;;;9.43;5.07;;;;;;;;;;5016029;28;20034;-65
2022/04/30 02:39:34;;;;;;;14.80;5.28;;;;;;;;;;5013861;28;20542;-65
2022/04/30 02:41:59;;;;;;;10.30;5.28;;;;;;;;;;5029985;28;20116;-64
2022/04/30 02:44:26;;;;;;;12.00;5.80;;;;;;;;;;5032192;28;20025;-65
2022/04/30 02:46:54;;;;;;;9.50;5.55;;;;;;;;;;5041769;28;20037;-66
2022/04/30 02:49:20;;;;;;;10.88;5.45;;;;;;;;;;5045531;28;20032;-65
2022/04/30 02:51:45;;;;;;;9.90;5.28;;;;;;;;;;5012877;28;20028;-65
2022/04/30 02:54:10;;;;;;;10.18;5.38;;;;;;;;;;5008796;28;20034;-65
2022/04/30 02:56:36;;;;;;;10.68;5.90;;;;;;;;;;5031777;28;20060;-66
2022/04/30 03:01:45;;;;;;;10.18;5.90;;;;;;;;;;5030292;28;20156;-66
2022/04/30 03:04:11;;;;;;;10.73;5.50;;;;;;;;;;5035352;28;20111;-65
2022/04/30 03:06:36;;;;;;;9.48;5.25;;;;;;;;;;5052586;28;20060;-65
2022/04/30 03:09:03;;;;;;;11.88;5.35;;;;;;;;;;5048530;28;20463;-65
2022/04/30 03:11:28;;;;;;;10.95;5.20;;;;;;;;;;5052169;28;20463;-66
2022/04/30 03:13:54;;;;;;;13.15;5.80;;;;;;;;;;5017639;28;20029;-66
2022/04/30 03:21:58;;;;;;;9.48;5.60;;;;;;;;;;5012289;28;20052;-66
2022/04/30 03:24:27;;;;;;;13.43;5.88;;;;;;;;;;5018435;28;20484;-66
2022/04/30 03:26:52;;;;;;;9.13;5.43;;;;;;;;;;5012317;28;20034;-66
2022/04/30 03:29:19;;;;;;;12.82;5.90;;;;;;;;;;5036645;28;20036;-65
2022/04/30 03:31:45;;;;;;;13.15;5.97;;;;;;;;;;5051965;28;20025;-66
2022/04/30 03:34:15;;;;;;;10.40;5.55;;;;;;;;;;5049603;28;20036;-65
2022/04/30 03:36:41;;;;;;;10.57;5.68;;;;;;;;;;5025904;28;20039;-65
2022/04/30 03:39:07;;;;;;;13.38;6.05;;;;;;;;;;5029039;28;20030;-65
2022/04/30 03:41:32;;;;;;;12.77;6.15;;;;;;;;;;5032058;28;20033;-66
2022/04/30 03:43:58;;;;;;;9.95;6.22;;;;;;;;;;5045758;28;20044;-66
2022/04/30 03:46:23;;;;;;;14.60;5.93;;;;;;;;;;5032219;28;20040;-66
2022/04/30 03:48:53;;;;;;;14.40;6.47;;;;;;;;;;5011819;28;20380;-67
2022/04/30 03:51:20;;;;;;;14.60;6.20;;;;;;;;;;5020456;28;20030;-65
2022/04/30 03:53:46;;;;;;;12.35;5.57;;;;;;;;;;5015386;28;20495;-66
2022/04/30 03:56:12;;;;;;;13.65;5.90;;;;;;;;;;5018700;28;20037;-67
2022/04/30 03:58:37;;;;;;;13.63;6.15;;;;;;;;;;5031774;28;20025;-68
2022/04/30 04:01:03;;;;;;;11.10;6.13;;;;;;;;;;5033757;28;20474;-64
2022/04/30 04:03:28;;;;;;;10.43;5.68;;;;;;;;;;5051565;28;20040;-66
2022/04/30 04:05:54;;;;;;;10.10;5.60;;;;;;;;;;5028067;28;20041;-65
2022/04/30 04:08:20;;;;;;;16.27;5.75;;;;;;;;;;5025099;28;20033;-65
2022/04/30 04:10:46;;;;;;;12.85;5.97;;;;;;;;;;5021389;28;20034;-66
2022/04/30 04:18:40;;;;;;;14.38;6.00;;;;;;;;;;5024677;28;20045;-66
2022/04/30 04:21:07;;;;;;;11.20;5.50;;;;;;;;;;5010801;28;20042;-65
2022/04/30 04:25:58;;;;;;;11.10;5.68;;;;;;;;;;5020441;28;20514;-66
2022/04/30 04:26:19;;;;;;;13.77;6.30;;;;;;;;;;5024400;28;20133;-65
2022/04/30 04:28:45;;;;;;;10.65;5.95;;;;;;;;;;5020964;28;20113;-67
2022/04/30 04:31:10;;;;;;;13.80;6.38;;;;;;;;;;5030452;28;20451;-65
2022/04/30 04:33:35;;;;;;;10.70;6.07;;;;;;;;;;5022782;28;20044;-66
2022/04/30 04:36:01;;;;;;;11.60;5.70;;;;;;;;;;5012756;28;20530;-66
2022/04/30 04:38:26;;;;;;;13.43;6.43;;;;;;;;;;5020823;28;20101;-66
2022/04/30 04:40:52;;;;;;;10.93;5.43;;;;;;;;;;5019597;28;20036;-65
2022/04/30 04:43:17;;;;;;;14.20;6.78;;;;;;;;;;5048984;28;20069;-66
2022/04/30 04:45:43;;;;;;;15.27;5.88;;;;;;;;;;5048238;28;20049;-65
2022/04/30 04:48:09;;;;;;;12.80;6.30;;;;;;;;;;5050671;28;20103;-65
2022/04/30 04:50:35;;;;;;;14.43;6.30;;;;;;;;;;5046466;28;20037;-65
2022/04/30 04:53:00;;;;;;;11.27;6.28;;;;;;;;;;5011663;28;20042;-67
2022/04/30 04:55:25;;;;;;;11.57;5.95;;;;;;;;;;5014777;28;20026;-67
2022/04/30 04:57:51;;;;;;;14.60;6.60;;;;;;;;;;5025455;28;20029;-66
2022/04/30 05:00:17;;;;;;;15.63;7.03;;;;;;;;;;5022198;28;20061;-66
2022/04/30 05:02:43;;;;;;;11.18;5.85;;;;;;;;;;5015397;28;20038;-67
2022/04/30 05:05:09;;;;;;;13.95;6.00;;;;;;;;;;5027818;28;20061;-65
2022/04/30 05:07:34;;;;;;;13.15;5.53;;;;;;;;;;5018264;28;20506;-67
2022/04/30 05:10:00;;;;;;;10.10;5.90;;;;;;;;;;5040006;28;20029;-66
2022/04/30 05:12:26;;;;;;;12.52;5.68;;;;;;;;;;5034455;28;20033;-66
2022/04/30 05:14:53;;;;;;;12.32;6.20;;;;;;;;;;5012178;28;20091;-66
2022/04/30 05:17:18;;;;;;;11.00;5.72;;;;;;;;;;5014628;28;20045;-65
2022/04/30 05:19:44;;;;;;;11.40;5.60;;;;;;;;;;5021226;28;20042;-66
2022/04/30 05:22:09;;;;;;;14.40;6.13;;;;;;;;;;5014524;28;20065;-65
2022/04/30 05:24:35;;;;;;;12.65;6.25;;;;;;;;;;5021454;28;20045;-66
2022/04/30 05:27:01;;;;;;;13.05;5.88;;;;;;;;;;5013869;28;20026;-66
2022/04/30 05:29:27;;;;;;;12.85;5.90;;;;;;;;;;5022422;28;20325;-66
2022/04/30 05:31:52;;;;;;;12.73;6.18;;;;;;;;;;5023690;28;20479;-66
2022/04/30 05:34:18;;;;;;;11.95;5.43;;;;;;;;;;5031572;28;20033;-66
2022/04/30 05:36:44;;;;;;;11.55;5.60;;;;;;;;;;5023302;28;20034;-66
2022/04/30 05:39:09;;;;;;;10.80;6.38;;;;;;;;;;5014747;28;20057;-65
2022/04/30 05:41:34;;;;;;;12.55;6.50;;;;;;;;;;5019400;28;20135;-66
2022/04/30 05:44:00;;;;;;;14.63;5.90;;;;;;;;;;5034295;28;20026;-67
2022/04/30 05:46:26;;;;;;;11.15;5.75;;;;;;;;;;5027189;28;20442;-66
2022/04/30 05:48:51;;;;;;;11.77;5.55;;;;;;;;;;5018761;28;20033;-66
2022/04/30 05:51:17;;;;;;;19.45;8.20;;;;;;;;;;5028541;28;20463;-66
2022/04/30 05:53:42;;;;;;;12.88;5.68;;;;;;;;;;5024017;28;20041;-67
2022/04/30 05:56:08;;;;;;;13.63;6.22;;;;;;;;;;5026593;28;20038;-66
2022/04/30 05:58:34;;;;;;;16.35;6.07;;;;;;;;;;5030641;28;20051;-67
2022/04/30 06:00:59;;;;;;;12.18;6.25;;;;;;;;;;5028377;28;20126;-66
2022/04/30 06:03:25;;;;;;;12.25;6.18;;;;;;;;;;5031046;28;20546;-66
2022/04/30 06:05:51;;;;;;;11.52;5.82;;;;;;;;;;5036319;28;20160;-66
2022/04/30 06:08:16;;;;;;;14.02;6.40;;;;;;;;;;5050051;28;20036;-66
2022/04/30 06:10:41;;;;;;;15.50;6.43;;;;;;;;;;5051857;28;20055;-66
2022/04/30 06:13:07;;;;;;;12.98;6.15;;;;;;;;;;5053520;28;20118;-67
2022/04/30 06:15:32;;;;;;;13.27;5.95;;;;;;;;;;5048900;28;20212;-66
2022/04/30 06:17:58;;;;;;;10.85;5.70;;;;;;;;;;5053408;28;20086;-66
2022/04/30 06:20:23;;;;;;;15.43;5.28;;;;;;;;;;5034557;28;20048;-66
2022/04/30 06:22:49;;;;;;;10.80;5.53;;;;;;;;;;5051978;28;20437;-66
2022/04/30 06:25:14;;;;;;;11.05;5.30;;;;;;;;;;5048832;28;20540;-65
2022/04/30 06:27:40;;;;;;;12.73;5.30;;;;;;;;;;5052077;28;20032;-66
2022/04/30 06:30:07;;;;;;;9.65;5.55;;;;;;;;;;5051303;28;20371;-65
2022/04/30 06:32:33;;;;;;;11.00;5.50;;;;;;;;;;5032109;28;20362;-64
2022/04/30 06:34:59;;;;;;;9.70;5.03;;;;;;;;;;5053338;28;20037;-66
2022/04/30 06:37:24;;;;;;;14.95;5.88;;;;;;;;;;5032699;28;20039;-65
2022/04/30 06:39:51;;;;;;;14.10;5.15;;;;;;;;;;5051527;28;20033;-66
2022/04/30 06:42:16;;;;;;;14.88;5.35;;;;;;;;;;5049642;28;20108;-65
2022/04/30 06:44:42;;;;;;;9.02;5.10;;;;;;;;;;5051544;28;20550;-64
2022/04/30 06:47:07;;;;;;;10.82;5.38;;;;;;;;;;5051267;28;20116;-65
2022/04/30 06:49:33;;;;;;;10.73;5.20;;;;;;;;;;5052101;28;20017;-65
2022/04/30 06:51:58;;;;;;;9.88;5.07;;;;;;;;;;5048865;28;20489;-66
2022/04/30 06:57:11;;;;;;;11.02;5.20;;;;;;;;;;5046324;28;20075;-66
2022/04/30 06:59:41;;;;;;;10.65;4.93;;;;;;;;;;5048787;28;20037;-65
2022/04/30 07:02:24;;;;;;;7.22;4.50;;;;;;;;;;5051338;28;20029;-65
2022/04/30 07:04:51;;;;;;;8.88;4.30;;;;;;;;;;5037208;28;20034;-66
2022/04/30 07:07:20;;;;;;;9.82;4.50;;;;;;;;;;5031924;28;20033;-64
2022/04/30 07:09:46;;;;;;;8.73;4.65;;;;;;;;;;5043979;28;20082;-67
2022/04/30 07:12:14;;;;;;;9.60;4.30;;;;;;;;;;5028279;28;20038;-66
2022/04/30 07:14:41;;;;;;;10.88;4.25;;;;;;;;;;5023931;28;20096;-67
2022/04/30 07:17:09;;;;;;;8.52;4.25;;;;;;;;;;5013533;28;20037;-67
2022/04/30 07:19:35;;;;;;;8.82;4.40;;;;;;;;;;5015495;28;20105;-66
2022/04/30 07:22:02;;;;;;;9.60;4.50;;;;;;;;;;5012349;28;20113;-67
2022/04/30 07:24:28;;;;;;;8.80;4.75;;;;;;;;;;5030503;28;20080;-65
2022/04/30 07:26:54;;;;;;;8.65;3.97;;;;;;;;;;5052106;28;20475;-66
2022/04/30 07:29:19;;;;;;;7.85;4.50;;;;;;;;;;5048942;28;20116;-65
2022/04/30 07:31:45;;;;;;;9.27;4.45;;;;;;;;;;5051567;28;20063;-67
2022/04/30 07:34:11;;;;;;;12.05;5.00;;;;;;;;;;5033115;28;20030;-66
2022/04/30 07:36:37;;;;;;;10.30;5.00;;;;;;;;;;5028634;28;20537;-66
2022/04/30 07:39:03;;;;;;;9.88;4.90;;;;;;;;;;5032676;28;20491;-67
2022/04/30 07:41:29;;;;;;;9.38;5.07;;;;;;;;;;5037723;28;20364;-64
2022/04/30 07:43:54;;;;;;;8.20;4.47;;;;;;;;;;5031508;28;20498;-65
2022/04/30 07:46:22;;;;;;;8.20;4.60;;;;;;;;;;5030814;28;20040;-66
2022/04/30 07:48:48;;;;;;;9.02;4.55;;;;;;;;;;5044779;28;20064;-66
2022/04/30 07:51:14;;;;;;;8.48;4.45;;;;;;;;;;5011392;28;20472;-66
2022/04/30 07:53:44;;;;;;;10.25;4.82;;;;;;;;;;5051067;28;20033;-67
2022/04/30 07:56:10;;;;;;;11.15;4.53;;;;;;;;;;5049650;28;20053;-65
2022/04/30 07:58:36;;;;;;;7.68;3.95;;;;;;;;;;5031408;28;20044;-67
2022/04/30 08:01:02;;;;;;;8.88;4.13;;;;;;;;;;5031387;28;20034;-68
2022/04/30 08:03:27;;;;;;;10.63;4.25;;;;;;;;;;5041448;28;20041;-65
2022/04/30 08:05:52;;;;;;;9.82;3.72;;;;;;;;;;5024778;28;20505;-66
2022/04/30 08:08:20;;;;;;;8.60;4.03;;;;;;;;;;5039662;28;20029;-65
2022/04/30 08:10:45;;;;;;;8.48;3.72;;;;;;;;;;5047052;28;20029;-68
2022/04/30 08:13:11;;;;;;;8.05;3.67;;;;;;;;;;5044687;28;20036;-67
2022/04/30 08:15:43;;;;;;;5.70;3.15;;;;;;;;;;5050711;28;20029;-67
2022/04/30 08:18:10;;;;;;;9.93;3.80;;;;;;;;;;5042668;28;20109;-67
2022/04/30 08:20:37;;;;;;;9.02;3.85;;;;;;;;;;5050270;28;20033;-65
2022/04/30 08:23:04;;;;;;;8.77;4.53;;;;;;;;;;5048391;28;20036;-66
2022/04/30 08:25:29;;;;;;;8.88;4.40;;;;;;;;;;5042342;28;20183;-66
2022/04/30 08:27:55;;;;;;;9.15;4.60;;;;;;;;;;5049106;28;20521;-68
2022/04/30 08:30:20;;;;;;;7.65;4.20;;;;;;;;;;5050636;28;20033;-64
2022/04/30 08:32:48;;;;;;;9.45;3.92;;;;;;;;;;5051907;28;20490;-67
2022/04/30 08:35:13;;;;;;;5.18;2.95;;;;;;;;;;5037514;28;20033;-68
2022/04/30 08:37:38;;;;;;;6.68;3.00;;;;;;;;;;5020105;28;20025;-67
2022/04/30 08:40:04;;;;;;;6.85;3.00;;;;;;;;;;4994474;28;20056;-67
2022/04/30 08:42:30;;;;;;;7.18;3.55;;;;;;;;;;5053119;28;20040;-66
2022/04/30 08:44:56;;;;;;;7.63;3.33;;;;;;;;;;5052601;28;20040;-69
2022/04/30 08:47:21;;;;;;;7.57;4.00;;;;;;;;;;5053298;28;20467;-65
2022/04/30 08:49:47;;;;;;;7.80;4.07;;;;;;;;;;5051146;28;20370;-70
2022/04/30 08:52:15;;;;;;;8.52;4.07;;;;;;;;;;5038137;28;20034;-66
2022/04/30 08:54:41;;;;;;;7.57;3.80;;;;;;;;;;5025535;28;20165;-67
2022/04/30 08:57:06;;;;;;;7.45;4.07;;;;;;;;;;5025492;28;20025;-67
2022/04/30 08:59:32;;;;;;;9.02;4.10;;;;;;;;;;5039077;28;20472;-67
2022/04/30 09:01:58;;;;;;;8.75;4.15;;;;;;;;;;5036812;28;20048;-68
2022/04/30 09:04:25;;;;;;;6.50;4.00;;;;;;;;;;5053537;28;20116;-65
2022/04/30 09:06:53;;;;;;;7.03;3.95;;;;;;;;;;5051756;28;20089;-67
2022/04/30 09:09:23;;;;;;;8.13;3.72;;;;;;;;;;5053804;28;20040;-67
2022/04/30 09:11:48;;;;;;;8.50;3.90;;;;;;;;;;5037629;28;20491;-67
2022/04/30 09:14:23;;;;;;;5.68;3.85;;;;;;;;;;5034419;28;20049;-67
2022/04/30 09:16:50;;;;;;;9.00;4.00;;;;;;;;;;5016842;28;20318;-66
2022/04/30 09:19:16;;;;;;;6.82;3.92;;;;;;;;;;5043889;28;20056;-68
2022/04/30 09:21:48;;;;;;;8.02;3.70;;;;;;;;;;5053020;28;20051;-66
2022/04/30 09:24:15;;;;;;;6.53;4.10;;;;;;;;;;5050823;28;20450;-66
2022/04/30 09:26:41;;;;;;;8.13;4.00;;;;;;;;;;5027645;28;20813;-66
2022/04/30 09:29:23;;;;;;;6.50;4.07;;;;;;;;;;5047518;28;20033;-67
2022/04/30 09:31:53;;;;;;;6.22;3.85;;;;;;;;;;5050897;28;20025;-67
2022/04/30 09:39:49;;;;;;;6.38;3.53;;;;;;;;;;5033828;28;20541;-66
2022/04/30 09:42:14;;;;;;;5.90;3.78;;;;;;;;;;5034843;28;20041;-65
2022/04/30 09:44:40;;;;;;;6.72;3.72;;;;;;;;;;5052882;28;20052;-69
2022/04/30 09:47:09;;;;;;;8.75;3.90;;;;;;;;;;5047306;28;20095;-65
2022/04/30 09:55:04;;;;;;;7.95;4.07;;;;;;;;;;5033687;28;20045;-68
2022/04/30 09:57:34;;;;;;;8.23;4.00;;;;;;;;;;5033061;28;20478;-67
2022/04/30 10:00:01;;;;;;;5.70;3.70;;;;;;;;;;5017594;28;20079;-68
2022/04/30 10:02:31;;;;;;;8.50;4.60;;;;;;;;;;5013197;28;20080;-66
2022/04/30 10:04:57;;;;;;;5.07;3.67;;;;;;;;;;5014007;28;20387;-67
2022/04/30 10:07:25;;;;;;;5.85;3.88;;;;;;;;;;5013480;28;20467;-67
2022/04/30 10:10:03;;;;;;;5.50;4.07;;;;;;;;;;5012099;28;20034;-68
2022/04/30 10:12:46;;;;;;;8.43;4.15;;;;;;;;;;5012560;28;20084;-68
2022/04/30 10:15:19;;;;;;;6.40;4.10;;;;;;;;;;5013728;28;20399;-68
2022/04/30 10:17:48;;;;;;;6.32;4.03;;;;;;;;;;5012862;28;20030;-68
2022/04/30 10:20:18;;;;;;;5.95;3.88;;;;;;;;;;5011794;28;20435;-67
2022/04/30 10:22:54;;;;;;;6.13;3.58;;;;;;;;;;5034859;28;20194;-66
2022/04/30 10:25:42;;;;;;;8.60;3.75;;;;;;;;;;5049266;28;20048;-68
2022/04/30 10:28:18;;;;;;;8.50;3.75;;;;;;;;;;5053102;28;20025;-68
2022/04/30 10:30:45;;;;;;;6.95;3.80;;;;;;;;;;5037074;28;20460;-68
2022/04/30 10:33:11;;;;;;;5.43;3.42;;;;;;;;;;5037011;28;20061;-67
2022/04/30 10:35:39;;;;;;;6.78;3.78;;;;;;;;;;5031115;28;20495;-69
2022/04/30 10:38:18;;;;;;;6.85;3.70;;;;;;;;;;5029294;28;20044;-66
2022/04/30 10:40:57;;;;;;;6.38;3.70;;;;;;;;;;5033019;28;20479;-69
2022/04/30 10:43:32;;;;;;;5.82;3.90;;;;;;;;;;5033828;28;20032;-69
2022/04/30 10:45:59;;;;;;;8.52;3.50;;;;;;;;;;5045171;28;20047;-69
2022/04/30 10:48:25;;;;;;;9.05;3.72;;;;;;;;;;5050111;28;20497;-69
2022/04/30 10:51:30;;;;;;;6.20;3.38;;;;;;;;;;5041342;28;20467;-69
2022/04/30 10:53:58;;;;;;;6.60;3.67;;;;;;;;;;5042017;28;20072;-68
2022/04/30 10:56:27;;;;;;;7.18;3.53;;;;;;;;;;5045998;28;20448;-70
2022/04/30 10:58:53;;;;;;;7.63;3.92;;;;;;;;;;5026168;28;20034;-69
2022/04/30 11:01:19;;;;;;;5.25;3.30;;;;;;;;;;5032831;28;21125;-68
2022/04/30 11:03:46;;;;;;;6.70;3.58;;;;;;;;;;5049187;28;20061;-68
2022/04/30 11:06:18;;;;;;;5.65;3.80;;;;;;;;;;5050625;28;20044;-67
2022/04/30 11:08:43;;;;;;;5.70;3.67;;;;;;;;;;5051626;28;20025;-68
2022/04/30 11:11:09;;;;;;;6.60;3.42;;;;;;;;;;5046966;28;20033;-68
2022/04/30 11:13:34;;;;;;;4.88;3.10;;;;;;;;;;5014769;28;20037;-67
2022/04/30 11:16:00;;;;;;;6.20;3.42;;;;;;;;;;5029436;28;20075;-66
2022/04/30 11:18:26;;;;;;;7.30;3.38;;;;;;;;;;5032151;28;20483;-68
2022/04/30 11:21:01;;;;;;;8.02;3.40;;;;;;;;;;5035896;28;20029;-68
2022/04/30 11:23:26;;;;;;;6.53;3.45;;;;;;;;;;5038432;28;20052;-69
2022/04/30 11:25:52;;;;;;;5.53;3.20;;;;;;;;;;5035257;28;20033;-68
2022/04/30 11:28:18;;;;;;;5.65;3.03;;;;;;;;;;5034363;28;20038;-67
2022/04/30 11:30:45;;;;;;;6.00;3.30;;;;;;;;;;5038878;28;20471;-68
2022/04/30 11:33:14;;;;;;;4.22;2.83;;;;;;;;;;5030533;28;20037;-68
2022/04/30 11:35:40;;;;;;;4.85;2.53;;;;;;;;;;5037777;28;20033;-67
2022/04/30 11:38:10;;;;;;;3.83;2.67;;;;;;;;;;5029860;28;20030;-67
2022/04/30 11:40:40;;;;;;;4.15;2.90;;;;;;;;;;5045324;28;20059;-67
2022/04/30 11:43:05;;;;;;;5.18;3.60;;;;;;;;;;5033675;28;20044;-66
2022/04/30 11:45:31;;;;;;;5.95;3.33;;;;;;;;;;5047985;28;20029;-66
2022/04/30 11:47:57;;;;;;;4.75;3.08;;;;;;;;;;5032555;28;20029;-69
2022/04/30 11:50:23;;;;;;;4.60;3.40;;;;;;;;;;5031490;28;20117;-68
2022/04/30 11:52:50;;;;;;;4.18;3.08;;;;;;;;;;5040890;28;20033;-68
2022/04/30 11:55:16;;;;;;;3.65;2.95;;;;;;;;;;5031561;28;20455;-67
2022/04/30 11:57:43;;;;;;;6.07;3.30;;;;;;;;;;5038073;28;20120;-66
2022/04/30 12:00:13;;;;;;;3.40;2.83;;;;;;;;;;5019366;28;20025;-68
2022/04/30 12:02:40;;;;;;;5.32;3.25;;;;;;;;;;5027978;28;20038;-67
2022/04/30 12:05:06;;;;;;;6.03;3.30;;;;;;;;;;5037247;28;20095;-66
2022/04/30 12:07:46;;;;;;;4.03;2.80;;;;;;;;;;5045064;28;20040;-64
2022/04/30 12:10:18;;;;;;;3.65;2.60;;;;;;;;;;5038363;28;20079;-66
2022/04/30 12:12:44;;;;;;;6.20;3.00;;;;;;;;;;5028931;28;20124;-66
2022/04/30 12:15:25;;;;;;;5.25;3.10;;;;;;;;;;5036191;28;20063;-61
2022/04/30 12:26:17;;;;;;;5.32;3.53;;;;;;;;;;5047305;28;20056;-61
2022/04/30 12:28:47;;;;;;;4.88;3.00;;;;;;;;;;5044910;28;20475;-61
2022/04/30 12:31:13;;;;;;;4.00;2.78;;;;;;;;;;5042191;28;20512;-61
2022/04/30 12:33:49;;;;;;;4.38;3.13;;;;;;;;;;5033417;28;20029;-61
2022/04/30 12:36:16;;;;;;;7.18;3.60;;;;;;;;;;5029109;28;20095;-60
2022/04/30 12:38:53;;;;;;;4.43;2.90;;;;;;;;;;5029259;28;20426;-60
2022/04/30 12:41:18;;;;;;;4.50;2.90;;;;;;;;;;5031541;28;20029;-61
2022/04/30 12:43:43;;;;;;;4.40;2.90;;;;;;;;;;5030249;28;20048;-61
2022/04/30 12:46:18;;;;;;;4.97;3.20;;;;;;;;;;5033947;28;20436;-61
2022/04/30 12:48:44;;;;;;;3.33;2.70;;;;;;;;;;5010777;28;20550;-61
2022/04/30 12:51:10;;;;;;;4.93;2.95;;;;;;;;;;5037622;28;20036;-61
2022/04/30 12:53:36;;;;;;;5.68;3.13;;;;;;;;;;5030490;28;20137;-61
2022/04/30 12:56:01;;;;;;;4.50;2.97;;;;;;;;;;5041993;28;20060;-61
2022/04/30 12:58:26;;;;;;;5.97;2.95;;;;;;;;;;5048142;28;20033;-61
2022/04/30 13:00:54;;;;;;;5.35;2.90;;;;;;;;;;5030639;28;20044;-61
2022/04/30 13:03:20;;;;;;;4.20;2.90;;;;;;;;;;5029268;28;20053;-61
2022/04/30 13:05:46;;;;;;;5.70;2.95;;;;;;;;;;5048878;28;20471;-60
2022/04/30 13:08:11;;;;;;;5.95;2.85;;;;;;;;;;5027485;28;20116;-61
2022/04/30 13:15:55;;;;;;;4.97;3.00;;;;;;;;;;5030064;28;20041;-61
2022/04/30 13:18:21;;;;;;;8.18;2.70;;;;;;;;;;5034927;28;20052;-61
2022/04/30 13:20:47;;;;;;;4.22;2.60;;;;;;;;;;5030710;28;20138;-61
2022/04/30 13:23:12;;;;;;;5.70;2.70;;;;;;;;;;5040660;28;20112;-61
2022/04/30 13:25:37;;;;;;;4.35;2.50;;;;;;;;;;5036186;28;20032;-61
2022/04/30 13:28:04;;;;;;;4.03;2.70;;;;;;;;;;5033774;28;20021;-61
2022/04/30 13:30:30;;;;;;;4.07;2.60;;;;;;;;;;5034138;28;20025;-61
2022/04/30 13:32:55;;;;;;;7.03;2.40;;;;;;;;;;5031562;28;20261;-61
2022/04/30 13:35:21;;;;;;;4.40;2.50;;;;;;;;;;5032655;28;20114;-61
2022/04/30 13:37:47;;;;;;;3.88;2.33;;;;;;;;;;5029859;28;20029;-61
2022/04/30 13:40:13;;;;;;;4.10;2.70;;;;;;;;;;5033231;28;20060;-60
2022/04/30 13:42:39;;;;;;;3.25;2.50;;;;;;;;;;5033772;28;20104;-61
2022/04/30 13:45:06;;;;;;;4.45;2.50;;;;;;;;;;5034164;28;20061;-61
2022/04/30 13:47:32;;;;;;;4.95;2.47;;;;;;;;;;5027814;28;20036;-61
2022/04/30 13:50:00;;;;;;;3.10;2.30;;;;;;;;;;5033212;28;20116;-61
2022/04/30 13:52:26;;;;;;;3.55;2.50;;;;;;;;;;5033625;28;20152;-60
2022/04/30 13:54:52;;;;;;;4.95;2.47;;;;;;;;;;5031091;28;20055;-61
2022/04/30 13:57:19;;;;;;;4.32;2.80;;;;;;;;;;5032443;28;20041;-60
2022/04/30 13:59:45;;;;;;;4.57;2.63;;;;;;;;;;5045051;28;20029;-61
2022/04/30 14:02:10;;;;;;;4.70;2.35;;;;;;;;;;5052971;28;20031;-61
2022/04/30 14:04:36;;;;;;;5.13;2.30;;;;;;;;;;5052452;28;20389;-61
2022/04/30 14:07:03;;;;;;;3.00;2.20;;;;;;;;;;5047191;28;20030;-64
2022/04/30 14:09:29;;;;;;;2.90;2.20;;;;;;;;;;5034211;28;20025;-61
2022/04/30 14:11:55;;;;;;;3.85;2.10;;;;;;;;;;5033234;28;20035;-61
2022/04/30 14:19:51;;;;;;;2.00;1.80;;;;;;;;;;5035271;28;20085;-61
2022/04/30 14:22:17;;;;;;;3.25;1.95;;;;;;;;;;5046196;28;20060;-61
2022/04/30 14:24:51;;;;;;;2.65;1.85;;;;;;;;;;5043668;28;20137;-62
2022/04/30 14:27:17;;;;;;;2.78;1.85;;;;;;;;;;5047734;28;20124;-61
2022/04/30 14:29:44;;;;;;;5.55;2.10;;;;;;;;;;5046982;28;20040;-61
2022/04/30 14:32:11;;;;;;;2.15;1.88;;;;;;;;;;5042931;28;20167;-61
2022/04/30 14:34:37;;;;;;;4.22;1.95;;;;;;;;;;5030358;28;20493;-61
2022/04/30 14:37:03;;;;;;;2.33;1.60;;;;;;;;;;5046152;28;20047;-61
2022/04/30 14:39:29;;;;;;;3.42;2.00;;;;;;;;;;5051960;28;20033;-60
2022/04/30 14:41:54;;;;;;;4.07;2.58;;;;;;;;;;5033532;28;20087;-60
2022/04/30 14:44:19;;;;;;;4.28;2.20;;;;;;;;;;5049547;28;20041;-61
2022/04/30 14:46:45;;;;;;;3.15;2.08;;;;;;;;;;5047805;28;20056;-61
2022/04/30 14:49:10;;;;;;;3.28;2.15;;;;;;;;;;5026583;28;20029;-61
2022/04/30 14:51:36;;;;;;;3.20;2.13;;;;;;;;;;5017199;28;21303;-61
2022/04/30 14:54:01;;;;;;;2.92;1.90;;;;;;;;;;5032615;28;20104;-61
2022/04/30 14:56:26;;;;;;;4.45;2.30;;;;;;;;;;5035523;28;20406;-60
2022/04/30 14:58:52;;;;;;;4.25;2.65;;;;;;;;;;5034636;28;20035;-61
2022/04/30 15:01:17;;;;;;;3.47;2.20;;;;;;;;;;5032502;28;20101;-61
2022/04/30 15:03:43;;;;;;;4.00;2.20;;;;;;;;;;5044962;28;20037;-61
2022/04/30 15:06:10;;;;;;;4.05;2.22;;;;;;;;;;5027992;28;20030;-62
2022/04/30 15:08:36;;;;;;;6.22;2.25;;;;;;;;;;5021484;28;20037;-62
2022/04/30 15:11:01;;;;;;;3.83;2.38;;;;;;;;;;5048490;28;20600;-61
2022/04/30 15:13:26;;;;;;;5.00;2.03;;;;;;;;;;5043911;28;20037;-60
2022/04/30 15:15:52;;;;;;;5.15;3.20;;;;;;;;;;5023815;28;20041;-60
2022/04/30 15:18:17;;;;;;;5.85;3.55;;;;;;;;;;5033215;28;20064;-60
2022/04/30 15:20:43;;;;;;;6.20;4.15;;;;;;;;;;5034180;28;20479;-60
2022/04/30 15:23:09;;;;;;;5.70;3.95;;;;;;;;;;5031326;28;20143;-61
2022/04/30 15:25:34;;;;;;;6.57;4.50;;;;;;;;;;5040730;28;20036;-60
2022/04/30 15:28:00;;;;;;;7.13;4.10;;;;;;;;;;5025590;28;20025;-63
2022/04/30 15:30:27;;;;;;;7.20;4.60;;;;;;;;;;5023033;28;20520;-63
2022/04/30 15:32:53;;;;;;;7.35;4.20;;;;;;;;;;5046743;28;20037;-62